sensor_id;sensor_type;location;lat;lon;timestamp;P1;durP1;ratioP1;P2;durP2;ratioP2
20721;SDS011;10522;52.198;9.890;2023-07-20T00:00:53;3.47;;;1.83;;
20721;SDS011;10522;52.198;9.890;2023-07-20T00:03:19;4.37;;;2.20;;
20721;SDS011;10522;52.198;9.890;2023-07-20T00:05:50;4.87;;;2.07;;
20721;SDS011;10522;52.198;9.890;2023-07-20T00:08:16;4.53;;;1.80;;
20721;SDS011;10522;52.198;9.890;2023-07-20T00:10:43;7.37;;;2.30;;
20721;SDS011;10522;52.198;9.890;2023-07-20T00:13:09;7.60;;;2.67;;
20721;SDS011;10522;52.198;9.890;2023-07-20T00:15:36;11.20;;;2.37;;
20721;SDS011;10522;52.198;9.890;2023-07-20T00:18:02;2.83;;;2.20;;
20721;SDS011;10522;52.198;9.890;2023-07-20T00:20:29;8.67;;;2.20;;
20721;SDS011;10522;52.198;9.890;2023-07-20T00:22:54;11.70;;;2.37;;
20721;SDS011;10522;52.198;9.890;2023-07-20T00:25:22;5.50;;;2.40;;
20721;SDS011;10522;52.198;9.890;2023-07-20T00:27:48;7.70;;;1.77;;
20721;SDS011;10522;52.198;9.890;2023-07-20T00:30:14;5.43;;;2.03;;
20721;SDS011;10522;52.198;9.890;2023-07-20T00:32:40;4.63;;;1.80;;
20721;SDS011;10522;52.198;9.890;2023-07-20T00:35:07;4.67;;;2.00;;
20721;SDS011;10522;52.198;9.890;2023-07-20T00:37:32;4.87;;;2.03;;
20721;SDS011;10522;52.198;9.890;2023-07-20T00:39:58;8.27;;;1.80;;
20721;SDS011;10522;52.198;9.890;2023-07-20T00:42:23;4.63;;;1.80;;
20721;SDS011;10522;52.198;9.890;2023-07-20T00:44:49;9.37;;;2.13;;
20721;SDS011;10522;52.198;9.890;2023-07-20T00:47:15;3.83;;;2.20;;
20721;SDS011;10522;52.198;9.890;2023-07-20T00:49:40;9.57;;;2.77;;
20721;SDS011;10522;52.198;9.890;2023-07-20T00:52:06;3.47;;;1.70;;
20721;SDS011;10522;52.198;9.890;2023-07-20T00:54:33;6.57;;;1.93;;
20721;SDS011;10522;52.198;9.890;2023-07-20T00:57:00;3.47;;;1.93;;
20721;SDS011;10522;52.198;9.890;2023-07-20T00:59:27;6.87;;;2.10;;
20721;SDS011;10522;52.198;9.890;2023-07-20T01:01:53;4.97;;;2.73;;
20721;SDS011;10522;52.198;9.890;2023-07-20T01:04:19;9.93;;;2.10;;
20721;SDS011;10522;52.198;9.890;2023-07-20T01:06:46;6.20;;;1.80;;
20721;SDS011;10522;52.198;9.890;2023-07-20T01:10:01;13.03;;;2.33;;
20721;SDS011;10522;52.198;9.890;2023-07-20T01:12:35;6.57;;;2.10;;
20721;SDS011;10522;52.198;9.890;2023-07-20T01:15:21;9.43;;;2.47;;
20721;SDS011;10522;52.198;9.890;2023-07-20T01:17:47;3.70;;;1.87;;
20721;SDS011;10522;52.198;9.890;2023-07-20T01:20:13;5.73;;;1.97;;
20721;SDS011;10522;52.198;9.890;2023-07-20T01:31:14;6.17;;;2.27;;
20721;SDS011;10522;52.198;9.890;2023-07-20T01:33:46;13.57;;;3.47;;
20721;SDS011;10522;52.198;9.890;2023-07-20T01:36:12;5.60;;;2.07;;
20721;SDS011;10522;52.198;9.890;2023-07-20T01:38:39;13.37;;;2.40;;
20721;SDS011;10522;52.198;9.890;2023-07-20T01:41:06;11.67;;;1.97;;
20721;SDS011;10522;52.198;9.890;2023-07-20T01:43:33;9.30;;;2.20;;
20721;SDS011;10522;52.198;9.890;2023-07-20T01:45:59;13.40;;;2.77;;
20721;SDS011;10522;52.198;9.890;2023-07-20T01:48:25;7.17;;;2.77;;
20721;SDS011;10522;52.198;9.890;2023-07-20T01:50:50;9.00;;;2.50;;
20721;SDS011;10522;52.198;9.890;2023-07-20T01:53:16;9.03;;;2.37;;
20721;SDS011;10522;52.198;9.890;2023-07-20T01:55:42;13.20;;;2.47;;
20721;SDS011;10522;52.198;9.890;2023-07-20T01:58:08;18.53;;;2.33;;
20721;SDS011;10522;52.198;9.890;2023-07-20T02:00:34;15.30;;;2.53;;
20721;SDS011;10522;52.198;9.890;2023-07-20T02:03:01;16.57;;;2.67;;
20721;SDS011;10522;52.198;9.890;2023-07-20T02:05:27;13.00;;;2.70;;
20721;SDS011;10522;52.198;9.890;2023-07-20T02:07:53;10.33;;;2.07;;
20721;SDS011;10522;52.198;9.890;2023-07-20T02:10:18;13.03;;;2.53;;
20721;SDS011;10522;52.198;9.890;2023-07-20T02:12:44;10.20;;;2.33;;
20721;SDS011;10522;52.198;9.890;2023-07-20T02:15:10;8.70;;;2.30;;
20721;SDS011;10522;52.198;9.890;2023-07-20T02:17:35;13.50;;;2.23;;
20721;SDS011;10522;52.198;9.890;2023-07-20T02:20:02;8.23;;;2.20;;
20721;SDS011;10522;52.198;9.890;2023-07-20T02:22:28;6.43;;;1.87;;
20721;SDS011;10522;52.198;9.890;2023-07-20T02:24:53;12.20;;;2.20;;
20721;SDS011;10522;52.198;9.890;2023-07-20T02:27:19;11.70;;;2.43;;
20721;SDS011;10522;52.198;9.890;2023-07-20T02:29:45;16.23;;;2.17;;
20721;SDS011;10522;52.198;9.890;2023-07-20T02:32:10;13.40;;;2.20;;
20721;SDS011;10522;52.198;9.890;2023-07-20T02:34:36;8.57;;;2.33;;
20721;SDS011;10522;52.198;9.890;2023-07-20T02:37:01;5.33;;;1.80;;
20721;SDS011;10522;52.198;9.890;2023-07-20T02:39:27;10.30;;;2.27;;
20721;SDS011;10522;52.198;9.890;2023-07-20T02:41:53;8.00;;;2.27;;
20721;SDS011;10522;52.198;9.890;2023-07-20T02:44:19;7.13;;;1.90;;
20721;SDS011;10522;52.198;9.890;2023-07-20T02:46:45;8.47;;;2.00;;
20721;SDS011;10522;52.198;9.890;2023-07-20T02:49:10;7.07;;;2.00;;
20721;SDS011;10522;52.198;9.890;2023-07-20T02:51:36;13.07;;;2.27;;
20721;SDS011;10522;52.198;9.890;2023-07-20T02:54:02;12.67;;;2.90;;
20721;SDS011;10522;52.198;9.890;2023-07-20T02:56:28;8.17;;;2.00;;
20721;SDS011;10522;52.198;9.890;2023-07-20T02:58:54;12.23;;;2.73;;
20721;SDS011;10522;52.198;9.890;2023-07-20T03:01:19;13.00;;;2.70;;
20721;SDS011;10522;52.198;9.890;2023-07-20T03:03:45;14.53;;;3.83;;
20721;SDS011;10522;52.198;9.890;2023-07-20T03:06:14;11.27;;;2.43;;
20721;SDS011;10522;52.198;9.890;2023-07-20T03:08:41;11.07;;;2.20;;
20721;SDS011;10522;52.198;9.890;2023-07-20T03:11:12;14.23;;;2.47;;
20721;SDS011;10522;52.198;9.890;2023-07-20T03:13:39;13.70;;;3.37;;
20721;SDS011;10522;52.198;9.890;2023-07-20T03:16:06;14.10;;;2.40;;
20721;SDS011;10522;52.198;9.890;2023-07-20T03:18:36;10.30;;;1.87;;
20721;SDS011;10522;52.198;9.890;2023-07-20T03:21:08;11.17;;;2.30;;
20721;SDS011;10522;52.198;9.890;2023-07-20T03:23:36;13.83;;;2.17;;
20721;SDS011;10522;52.198;9.890;2023-07-20T03:26:02;7.17;;;1.77;;
20721;SDS011;10522;52.198;9.890;2023-07-20T03:28:28;9.60;;;1.70;;
20721;SDS011;10522;52.198;9.890;2023-07-20T03:30:54;9.47;;;2.30;;
20721;SDS011;10522;52.198;9.890;2023-07-20T03:33:26;12.30;;;2.13;;
20721;SDS011;10522;52.198;9.890;2023-07-20T03:35:53;9.83;;;1.70;;
20721;SDS011;10522;52.198;9.890;2023-07-20T03:38:20;9.00;;;1.53;;
20721;SDS011;10522;52.198;9.890;2023-07-20T03:40:53;11.57;;;1.47;;
20721;SDS011;10522;52.198;9.890;2023-07-20T03:43:20;7.10;;;1.67;;
20721;SDS011;10522;52.198;9.890;2023-07-20T03:45:50;6.93;;;1.70;;
20721;SDS011;10522;52.198;9.890;2023-07-20T03:48:17;3.63;;;1.37;;
20721;SDS011;10522;52.198;9.890;2023-07-20T03:50:44;6.30;;;1.30;;
20721;SDS011;10522;52.198;9.890;2023-07-20T03:53:10;6.50;;;1.47;;
20721;SDS011;10522;52.198;9.890;2023-07-20T03:55:36;10.40;;;1.33;;
20721;SDS011;10522;52.198;9.890;2023-07-20T03:58:02;8.23;;;1.73;;
20721;SDS011;10522;52.198;9.890;2023-07-20T04:00:28;9.37;;;1.33;;
20721;SDS011;10522;52.198;9.890;2023-07-20T04:02:54;14.93;;;2.30;;
20721;SDS011;10522;52.198;9.890;2023-07-20T04:05:19;9.37;;;1.83;;
20721;SDS011;10522;52.198;9.890;2023-07-20T04:07:45;10.07;;;2.10;;
20721;SDS011;10522;52.198;9.890;2023-07-20T04:10:11;7.43;;;2.00;;
20721;SDS011;10522;52.198;9.890;2023-07-20T04:12:36;17.13;;;2.03;;
20721;SDS011;10522;52.198;9.890;2023-07-20T04:15:02;15.13;;;1.97;;
20721;SDS011;10522;52.198;9.890;2023-07-20T04:17:28;11.77;;;2.10;;
20721;SDS011;10522;52.198;9.890;2023-07-20T04:19:54;11.23;;;1.97;;
20721;SDS011;10522;52.198;9.890;2023-07-20T04:22:20;4.47;;;1.70;;
20721;SDS011;10522;52.198;9.890;2023-07-20T04:24:46;4.33;;;1.93;;
20721;SDS011;10522;52.198;9.890;2023-07-20T04:27:12;8.83;;;1.80;;
20721;SDS011;10522;52.198;9.890;2023-07-20T04:29:37;5.77;;;1.90;;
20721;SDS011;10522;52.198;9.890;2023-07-20T04:32:03;10.43;;;2.30;;
20721;SDS011;10522;52.198;9.890;2023-07-20T04:34:29;8.60;;;1.87;;
20721;SDS011;10522;52.198;9.890;2023-07-20T04:36:55;11.20;;;1.80;;
20721;SDS011;10522;52.198;9.890;2023-07-20T04:39:20;6.93;;;1.87;;
20721;SDS011;10522;52.198;9.890;2023-07-20T04:41:46;6.00;;;1.90;;
20721;SDS011;10522;52.198;9.890;2023-07-20T04:44:12;5.63;;;2.10;;
20721;SDS011;10522;52.198;9.890;2023-07-20T04:46:39;5.03;;;2.00;;
20721;SDS011;10522;52.198;9.890;2023-07-20T04:49:05;8.57;;;2.13;;
20721;SDS011;10522;52.198;9.890;2023-07-20T04:51:31;7.83;;;2.13;;
20721;SDS011;10522;52.198;9.890;2023-07-20T04:53:57;7.10;;;1.93;;
20721;SDS011;10522;52.198;9.890;2023-07-20T04:56:22;4.33;;;1.70;;
20721;SDS011;10522;52.198;9.890;2023-07-20T04:58:49;9.97;;;2.40;;
20721;SDS011;10522;52.198;9.890;2023-07-20T05:01:15;8.67;;;2.20;;
20721;SDS011;10522;52.198;9.890;2023-07-20T05:03:40;6.60;;;2.13;;
20721;SDS011;10522;52.198;9.890;2023-07-20T05:06:06;10.87;;;2.23;;
20721;SDS011;10522;52.198;9.890;2023-07-20T05:08:32;13.87;;;2.33;;
20721;SDS011;10522;52.198;9.890;2023-07-20T05:10:58;9.87;;;1.90;;
20721;SDS011;10522;52.198;9.890;2023-07-20T05:13:24;17.47;;;2.50;;
20721;SDS011;10522;52.198;9.890;2023-07-20T05:15:51;17.30;;;3.77;;
20721;SDS011;10522;52.198;9.890;2023-07-20T05:18:17;3.93;;;1.47;;
20721;SDS011;10522;52.198;9.890;2023-07-20T05:20:45;5.23;;;1.33;;
20721;SDS011;10522;52.198;9.890;2023-07-20T05:23:16;1.20;;;1.10;;
20721;SDS011;10522;52.198;9.890;2023-07-20T05:25:43;4.03;;;1.00;;
20721;SDS011;10522;52.198;9.890;2023-07-20T05:28:09;2.67;;;0.90;;
20721;SDS011;10522;52.198;9.890;2023-07-20T05:30:34;2.83;;;1.00;;
20721;SDS011;10522;52.198;9.890;2023-07-20T05:33:00;2.07;;;1.23;;
20721;SDS011;10522;52.198;9.890;2023-07-20T05:35:26;1.30;;;1.20;;
20721;SDS011;10522;52.198;9.890;2023-07-20T05:37:51;3.30;;;0.90;;
20721;SDS011;10522;52.198;9.890;2023-07-20T05:40:17;6.90;;;1.10;;
20721;SDS011;10522;52.198;9.890;2023-07-20T05:42:47;3.90;;;0.97;;
20721;SDS011;10522;52.198;9.890;2023-07-20T05:45:14;1.63;;;0.90;;
20721;SDS011;10522;52.198;9.890;2023-07-20T05:47:41;2.20;;;1.00;;
20721;SDS011;10522;52.198;9.890;2023-07-20T05:50:07;2.07;;;1.30;;
20721;SDS011;10522;52.198;9.890;2023-07-20T05:52:32;0.80;;;0.80;;
20721;SDS011;10522;52.198;9.890;2023-07-20T05:54:58;3.17;;;1.20;;
20721;SDS011;10522;52.198;9.890;2023-07-20T05:57:24;3.73;;;1.30;;
20721;SDS011;10522;52.198;9.890;2023-07-20T05:59:49;3.37;;;1.20;;
20721;SDS011;10522;52.198;9.890;2023-07-20T06:02:15;2.43;;;1.30;;
20721;SDS011;10522;52.198;9.890;2023-07-20T06:04:41;3.37;;;1.33;;
20721;SDS011;10522;52.198;9.890;2023-07-20T06:07:07;1.73;;;1.17;;
20721;SDS011;10522;52.198;9.890;2023-07-20T06:09:33;1.57;;;1.33;;
20721;SDS011;10522;52.198;9.890;2023-07-20T06:11:59;2.77;;;1.77;;
20721;SDS011;10522;52.198;9.890;2023-07-20T06:14:25;2.30;;;1.70;;
20721;SDS011;10522;52.198;9.890;2023-07-20T06:16:50;3.97;;;2.00;;
20721;SDS011;10522;52.198;9.890;2023-07-20T06:19:16;3.20;;;2.00;;
20721;SDS011;10522;52.198;9.890;2023-07-20T06:21:42;3.10;;;2.33;;
20721;SDS011;10522;52.198;9.890;2023-07-20T06:24:08;4.90;;;2.47;;
20721;SDS011;10522;52.198;9.890;2023-07-20T06:26:34;5.50;;;2.50;;
20721;SDS011;10522;52.198;9.890;2023-07-20T06:29:07;3.17;;;2.27;;
20721;SDS011;10522;52.198;9.890;2023-07-20T06:31:34;3.57;;;2.50;;
20721;SDS011;10522;52.198;9.890;2023-07-20T06:34:00;2.67;;;2.10;;
20721;SDS011;10522;52.198;9.890;2023-07-20T06:36:26;4.27;;;2.50;;
20721;SDS011;10522;52.198;9.890;2023-07-20T06:38:52;2.23;;;1.80;;
20721;SDS011;10522;52.198;9.890;2023-07-20T06:41:18;2.60;;;2.03;;
20721;SDS011;10522;52.198;9.890;2023-07-20T06:43:44;2.50;;;2.30;;
20721;SDS011;10522;52.198;9.890;2023-07-20T06:46:10;2.77;;;1.97;;
20721;SDS011;10522;52.198;9.890;2023-07-20T06:48:36;3.10;;;2.13;;
20721;SDS011;10522;52.198;9.890;2023-07-20T06:51:01;4.20;;;1.73;;
20721;SDS011;10522;52.198;9.890;2023-07-20T06:53:28;2.67;;;2.10;;
20721;SDS011;10522;52.198;9.890;2023-07-20T06:55:54;1.83;;;1.73;;
20721;SDS011;10522;52.198;9.890;2023-07-20T06:58:22;5.77;;;1.90;;
20721;SDS011;10522;52.198;9.890;2023-07-20T07:00:50;3.30;;;1.73;;
20721;SDS011;10522;52.198;9.890;2023-07-20T07:03:16;1.97;;;1.87;;
20721;SDS011;10522;52.198;9.890;2023-07-20T07:05:43;2.40;;;1.67;;
20721;SDS011;10522;52.198;9.890;2023-07-20T07:08:10;1.30;;;1.20;;
20721;SDS011;10522;52.198;9.890;2023-07-20T07:10:36;1.60;;;1.50;;
20721;SDS011;10522;52.198;9.890;2023-07-20T07:13:02;2.40;;;1.80;;
20721;SDS011;10522;52.198;9.890;2023-07-20T07:15:28;3.67;;;1.40;;
20721;SDS011;10522;52.198;9.890;2023-07-20T07:17:54;2.80;;;1.50;;
20721;SDS011;10522;52.198;9.890;2023-07-20T07:20:19;1.63;;;1.43;;
20721;SDS011;10522;52.198;9.890;2023-07-20T07:22:45;1.70;;;1.60;;
20721;SDS011;10522;52.198;9.890;2023-07-20T07:25:11;1.80;;;1.60;;
20721;SDS011;10522;52.198;9.890;2023-07-20T07:27:37;5.07;;;1.77;;
20721;SDS011;10522;52.198;9.890;2023-07-20T07:30:03;1.67;;;1.57;;
20721;SDS011;10522;52.198;9.890;2023-07-20T07:32:30;2.93;;;2.37;;
20721;SDS011;10522;52.198;9.890;2023-07-20T07:34:56;2.40;;;1.80;;
20721;SDS011;10522;52.198;9.890;2023-07-20T07:37:23;2.97;;;1.93;;
20721;SDS011;10522;52.198;9.890;2023-07-20T07:39:49;2.57;;;1.80;;
20721;SDS011;10522;52.198;9.890;2023-07-20T07:42:15;2.30;;;1.77;;
20721;SDS011;10522;52.198;9.890;2023-07-20T07:44:40;4.73;;;2.40;;
20721;SDS011;10522;52.198;9.890;2023-07-20T07:47:06;2.37;;;2.10;;
20721;SDS011;10522;52.198;9.890;2023-07-20T07:49:32;1.93;;;1.83;;
20721;SDS011;10522;52.198;9.890;2023-07-20T07:51:58;3.83;;;1.80;;
20721;SDS011;10522;52.198;9.890;2023-07-20T07:54:23;2.80;;;1.60;;
20721;SDS011;10522;52.198;9.890;2023-07-20T07:56:50;2.87;;;1.63;;
20721;SDS011;10522;52.198;9.890;2023-07-20T07:59:16;2.23;;;1.97;;
20721;SDS011;10522;52.198;9.890;2023-07-20T08:01:42;2.50;;;1.93;;
20721;SDS011;10522;52.198;9.890;2023-07-20T08:04:07;2.57;;;2.10;;
20721;SDS011;10522;52.198;9.890;2023-07-20T08:06:33;2.83;;;1.77;;
20721;SDS011;10522;52.198;9.890;2023-07-20T08:08:59;4.20;;;1.57;;
20721;SDS011;10522;52.198;9.890;2023-07-20T08:11:24;1.70;;;1.60;;
20721;SDS011;10522;52.198;9.890;2023-07-20T08:13:50;1.40;;;1.30;;
20721;SDS011;10522;52.198;9.890;2023-07-20T08:16:16;1.87;;;1.53;;
20721;SDS011;10522;52.198;9.890;2023-07-20T08:18:41;1.80;;;1.40;;
20721;SDS011;10522;52.198;9.890;2023-07-20T08:21:08;4.07;;;1.80;;
20721;SDS011;10522;52.198;9.890;2023-07-20T08:23:34;1.73;;;1.63;;
20721;SDS011;10522;52.198;9.890;2023-07-20T08:25:59;1.60;;;1.50;;
20721;SDS011;10522;52.198;9.890;2023-07-20T08:28:26;1.33;;;1.10;;
20721;SDS011;10522;52.198;9.890;2023-07-20T08:30:52;2.20;;;1.30;;
20721;SDS011;10522;52.198;9.890;2023-07-20T08:33:18;2.07;;;1.50;;
20721;SDS011;10522;52.198;9.890;2023-07-20T08:35:45;2.80;;;1.47;;
20721;SDS011;10522;52.198;9.890;2023-07-20T08:38:11;3.37;;;1.30;;
20721;SDS011;10522;52.198;9.890;2023-07-20T08:40:41;2.17;;;1.60;;
20721;SDS011;10522;52.198;9.890;2023-07-20T08:43:10;2.17;;;1.67;;
20721;SDS011;10522;52.198;9.890;2023-07-20T08:45:38;2.90;;;1.70;;
20721;SDS011;10522;52.198;9.890;2023-07-20T08:48:05;2.40;;;1.83;;
20721;SDS011;10522;52.198;9.890;2023-07-20T08:50:31;2.93;;;1.70;;
20721;SDS011;10522;52.198;9.890;2023-07-20T08:52:57;3.77;;;1.70;;
20721;SDS011;10522;52.198;9.890;2023-07-20T08:55:25;2.50;;;1.67;;
20721;SDS011;10522;52.198;9.890;2023-07-20T08:57:56;2.47;;;1.93;;
20721;SDS011;10522;52.198;9.890;2023-07-20T09:00:23;2.03;;;1.83;;
20721;SDS011;10522;52.198;9.890;2023-07-20T09:02:49;1.60;;;1.50;;
20721;SDS011;10522;52.198;9.890;2023-07-20T09:05:16;1.80;;;1.70;;
20721;SDS011;10522;52.198;9.890;2023-07-20T09:07:43;1.70;;;1.60;;
20721;SDS011;10522;52.198;9.890;2023-07-20T09:10:08;1.80;;;1.20;;
20721;SDS011;10522;52.198;9.890;2023-07-20T09:12:39;2.50;;;1.23;;
20721;SDS011;10522;52.198;9.890;2023-07-20T09:15:06;1.23;;;1.13;;
20721;SDS011;10522;52.198;9.890;2023-07-20T09:17:32;1.50;;;1.07;;
20721;SDS011;10522;52.198;9.890;2023-07-20T09:19:58;1.27;;;1.13;;
20721;SDS011;10522;52.198;9.890;2023-07-20T09:22:30;2.57;;;1.40;;
20721;SDS011;10522;52.198;9.890;2023-07-20T09:24:57;3.07;;;1.60;;
20721;SDS011;10522;52.198;9.890;2023-07-20T09:27:31;3.60;;;1.10;;
20721;SDS011;10522;52.198;9.890;2023-07-20T09:30:03;2.20;;;1.30;;
20721;SDS011;10522;52.198;9.890;2023-07-20T09:32:44;1.10;;;1.00;;
20721;SDS011;10522;52.198;9.890;2023-07-20T09:35:17;2.93;;;1.33;;
20721;SDS011;10522;52.198;9.890;2023-07-20T09:40:19;2.30;;;1.20;;
20721;SDS011;10522;52.198;9.890;2023-07-20T09:42:46;1.20;;;1.10;;
20721;SDS011;10522;52.198;9.890;2023-07-20T09:45:12;1.30;;;0.70;;
20721;SDS011;10522;52.198;9.890;2023-07-20T09:47:38;0.87;;;0.87;;
20721;SDS011;10522;52.198;9.890;2023-07-20T09:50:04;0.60;;;0.60;;
20721;SDS011;10522;52.198;9.890;2023-07-20T09:52:35;2.93;;;0.93;;
20721;SDS011;10522;52.198;9.890;2023-07-20T09:55:06;3.47;;;0.70;;
20721;SDS011;10522;52.198;9.890;2023-07-20T09:57:37;0.70;;;0.70;;
20721;SDS011;10522;52.198;9.890;2023-07-20T10:00:04;1.00;;;0.70;;
20721;SDS011;10522;52.198;9.890;2023-07-20T10:02:43;1.10;;;1.00;;
20721;SDS011;10522;52.198;9.890;2023-07-20T10:05:10;2.60;;;1.10;;
20721;SDS011;10522;52.198;9.890;2023-07-20T10:07:40;1.60;;;0.97;;
20721;SDS011;10522;52.198;9.890;2023-07-20T10:10:15;1.57;;;1.07;;
20721;SDS011;10522;52.198;9.890;2023-07-20T10:12:43;1.40;;;0.70;;
20721;SDS011;10522;52.198;9.890;2023-07-20T10:17:46;1.70;;;1.10;;
20721;SDS011;10522;52.198;9.890;2023-07-20T10:20:22;1.57;;;0.80;;
20721;SDS011;10522;52.198;9.890;2023-07-20T10:22:49;1.03;;;0.70;;
20721;SDS011;10522;52.198;9.890;2023-07-20T10:25:18;1.63;;;0.80;;
20721;SDS011;10522;52.198;9.890;2023-07-20T10:27:47;1.07;;;0.97;;
20721;SDS011;10522;52.198;9.890;2023-07-20T10:30:13;1.10;;;0.80;;
20721;SDS011;10522;52.198;9.890;2023-07-20T10:32:40;0.97;;;0.87;;
20721;SDS011;10522;52.198;9.890;2023-07-20T10:35:16;1.67;;;0.70;;
20721;SDS011;10522;52.198;9.890;2023-07-20T10:37:49;1.23;;;0.93;;
20721;SDS011;10522;52.198;9.890;2023-07-20T10:40:33;2.00;;;0.80;;
20721;SDS011;10522;52.198;9.890;2023-07-20T10:43:01;1.30;;;0.83;;
20721;SDS011;10522;52.198;9.890;2023-07-20T10:45:41;2.00;;;0.80;;
20721;SDS011;10522;52.198;9.890;2023-07-20T10:48:13;1.43;;;0.60;;
20721;SDS011;10522;52.198;9.890;2023-07-20T10:50:41;2.10;;;0.90;;
20721;SDS011;10522;52.198;9.890;2023-07-20T10:53:11;3.43;;;0.90;;
20721;SDS011;10522;52.198;9.890;2023-07-20T10:55:39;2.57;;;0.90;;
20721;SDS011;10522;52.198;9.890;2023-07-20T10:58:12;0.70;;;0.70;;
20721;SDS011;10522;52.198;9.890;2023-07-20T11:01:01;2.50;;;0.83;;
20721;SDS011;10522;52.198;9.890;2023-07-20T11:03:31;2.33;;;0.67;;
20721;SDS011;10522;52.198;9.890;2023-07-20T11:05:59;3.13;;;0.90;;
20721;SDS011;10522;52.198;9.890;2023-07-20T11:08:44;1.93;;;0.80;;
20721;SDS011;10522;52.198;9.890;2023-07-20T11:13:59;0.67;;;0.60;;
20721;SDS011;10522;52.198;9.890;2023-07-20T11:16:39;1.07;;;0.67;;
20721;SDS011;10522;52.198;9.890;2023-07-20T11:19:16;0.80;;;0.80;;
20721;SDS011;10522;52.198;9.890;2023-07-20T11:21:47;2.37;;;0.70;;
20721;SDS011;10522;52.198;9.890;2023-07-20T11:24:16;0.83;;;0.57;;
20721;SDS011;10522;52.198;9.890;2023-07-20T11:29:12;0.93;;;0.50;;
20721;SDS011;10522;52.198;9.890;2023-07-20T11:31:39;1.27;;;0.70;;
20721;SDS011;10522;52.198;9.890;2023-07-20T11:34:06;0.83;;;0.60;;
20721;SDS011;10522;52.198;9.890;2023-07-20T11:36:36;2.53;;;0.80;;
20721;SDS011;10522;52.198;9.890;2023-07-20T11:39:01;0.70;;;0.63;;
20721;SDS011;10522;52.198;9.890;2023-07-20T11:41:29;2.20;;;0.60;;
20721;SDS011;10522;52.198;9.890;2023-07-20T11:43:56;1.67;;;0.63;;
20721;SDS011;10522;52.198;9.890;2023-07-20T11:46:22;2.30;;;0.63;;
20721;SDS011;10522;52.198;9.890;2023-07-20T11:48:48;3.77;;;0.80;;
20721;SDS011;10522;52.198;9.890;2023-07-20T11:51:14;0.60;;;0.60;;
20721;SDS011;10522;52.198;9.890;2023-07-20T11:53:41;2.40;;;0.80;;
20721;SDS011;10522;52.198;9.890;2023-07-20T11:56:08;0.87;;;0.70;;
20721;SDS011;10522;52.198;9.890;2023-07-20T11:58:33;1.47;;;0.80;;
20721;SDS011;10522;52.198;9.890;2023-07-20T12:00:59;0.93;;;0.70;;
20721;SDS011;10522;52.198;9.890;2023-07-20T12:03:25;0.60;;;0.60;;
20721;SDS011;10522;52.198;9.890;2023-07-20T12:05:50;1.40;;;0.60;;
20721;SDS011;10522;52.198;9.890;2023-07-20T12:08:16;1.07;;;0.50;;
20721;SDS011;10522;52.198;9.890;2023-07-20T12:10:42;0.80;;;0.60;;
20721;SDS011;10522;52.198;9.890;2023-07-20T12:13:09;2.00;;;0.67;;
20721;SDS011;10522;52.198;9.890;2023-07-20T12:15:36;1.23;;;1.00;;
20721;SDS011;10522;52.198;9.890;2023-07-20T12:18:02;2.03;;;0.60;;
20721;SDS011;10522;52.198;9.890;2023-07-20T12:20:29;0.90;;;0.77;;
20721;SDS011;10522;52.198;9.890;2023-07-20T12:23:00;3.43;;;0.70;;
20721;SDS011;10522;52.198;9.890;2023-07-20T12:25:36;1.20;;;0.77;;
20721;SDS011;10522;52.198;9.890;2023-07-20T12:28:13;2.03;;;0.77;;
20721;SDS011;10522;52.198;9.890;2023-07-20T12:30:40;2.57;;;1.20;;
20721;SDS011;10522;52.198;9.890;2023-07-20T12:33:07;1.53;;;0.80;;
20721;SDS011;10522;52.198;9.890;2023-07-20T12:35:33;1.77;;;0.77;;
20721;SDS011;10522;52.198;9.890;2023-07-20T12:37:59;1.70;;;0.77;;
20721;SDS011;10522;52.198;9.890;2023-07-20T12:40:25;1.80;;;0.87;;
20721;SDS011;10522;52.198;9.890;2023-07-20T12:42:51;2.50;;;0.53;;
20721;SDS011;10522;52.198;9.890;2023-07-20T12:45:16;3.80;;;0.90;;
20721;SDS011;10522;52.198;9.890;2023-07-20T12:47:42;3.57;;;0.77;;
20721;SDS011;10522;52.198;9.890;2023-07-20T12:50:09;0.53;;;0.53;;
20721;SDS011;10522;52.198;9.890;2023-07-20T12:52:36;0.80;;;0.80;;
20721;SDS011;10522;52.198;9.890;2023-07-20T12:55:03;2.10;;;0.70;;
20721;SDS011;10522;52.198;9.890;2023-07-20T12:57:29;1.23;;;0.70;;
20721;SDS011;10522;52.198;9.890;2023-07-20T12:59:55;1.40;;;0.70;;
20721;SDS011;10522;52.198;9.890;2023-07-20T13:02:21;1.87;;;0.77;;
20721;SDS011;10522;52.198;9.890;2023-07-20T13:04:46;0.70;;;0.70;;
20721;SDS011;10522;52.198;9.890;2023-07-20T13:07:12;3.13;;;0.80;;
20721;SDS011;10522;52.198;9.890;2023-07-20T13:09:37;0.77;;;0.70;;
20721;SDS011;10522;52.198;9.890;2023-07-20T13:12:03;4.00;;;0.77;;
20721;SDS011;10522;52.198;9.890;2023-07-20T13:14:29;3.57;;;0.80;;
20721;SDS011;10522;52.198;9.890;2023-07-20T13:16:58;0.97;;;0.70;;
20721;SDS011;10522;52.198;9.890;2023-07-20T13:19:23;2.07;;;0.87;;
20721;SDS011;10522;52.198;9.890;2023-07-20T13:21:49;0.97;;;0.63;;
20721;SDS011;10522;52.198;9.890;2023-07-20T13:24:15;0.93;;;0.73;;
20721;SDS011;10522;52.198;9.890;2023-07-20T13:26:42;2.37;;;0.67;;
20721;SDS011;10522;52.198;9.890;2023-07-20T13:29:07;2.10;;;0.80;;
20721;SDS011;10522;52.198;9.890;2023-07-20T13:31:33;1.90;;;0.63;;
20721;SDS011;10522;52.198;9.890;2023-07-20T13:33:58;1.20;;;1.07;;
20721;SDS011;10522;52.198;9.890;2023-07-20T13:36:24;2.57;;;1.00;;
20721;SDS011;10522;52.198;9.890;2023-07-20T13:38:50;3.27;;;2.20;;
20721;SDS011;10522;52.198;9.890;2023-07-20T13:41:15;1.80;;;0.90;;
20721;SDS011;10522;52.198;9.890;2023-07-20T13:43:41;1.30;;;0.70;;
20721;SDS011;10522;52.198;9.890;2023-07-20T13:46:07;0.90;;;0.50;;
20721;SDS011;10522;52.198;9.890;2023-07-20T13:48:33;2.53;;;1.40;;
20721;SDS011;10522;52.198;9.890;2023-07-20T13:50:58;1.20;;;0.70;;
20721;SDS011;10522;52.198;9.890;2023-07-20T13:53:24;2.30;;;0.87;;
20721;SDS011;10522;52.198;9.890;2023-07-20T13:55:50;1.60;;;0.57;;
20721;SDS011;10522;52.198;9.890;2023-07-20T13:58:19;3.27;;;1.03;;
20721;SDS011;10522;52.198;9.890;2023-07-20T14:00:44;0.87;;;0.70;;
20721;SDS011;10522;52.198;9.890;2023-07-20T14:03:10;0.80;;;0.63;;
20721;SDS011;10522;52.198;9.890;2023-07-20T14:05:35;1.10;;;0.67;;
20721;SDS011;10522;52.198;9.890;2023-07-20T14:08:01;1.40;;;1.23;;
20721;SDS011;10522;52.198;9.890;2023-07-20T14:10:26;1.30;;;0.80;;
20721;SDS011;10522;52.198;9.890;2023-07-20T14:12:52;1.17;;;0.60;;
20721;SDS011;10522;52.198;9.890;2023-07-20T14:15:18;1.20;;;0.57;;
20721;SDS011;10522;52.198;9.890;2023-07-20T14:17:44;1.40;;;0.70;;
20721;SDS011;10522;52.198;9.890;2023-07-20T14:20:10;0.83;;;0.50;;
20721;SDS011;10522;52.198;9.890;2023-07-20T14:22:37;2.83;;;0.97;;
20721;SDS011;10522;52.198;9.890;2023-07-20T14:25:02;1.97;;;0.60;;
20721;SDS011;10522;52.198;9.890;2023-07-20T14:27:28;1.73;;;0.90;;
20721;SDS011;10522;52.198;9.890;2023-07-20T14:29:54;4.00;;;0.70;;
20721;SDS011;10522;52.198;9.890;2023-07-20T14:32:20;3.03;;;0.73;;
20721;SDS011;10522;52.198;9.890;2023-07-20T14:34:47;1.80;;;1.00;;
20721;SDS011;10522;52.198;9.890;2023-07-20T14:37:13;2.13;;;0.70;;
20721;SDS011;10522;52.198;9.890;2023-07-20T14:39:38;1.30;;;0.70;;
20721;SDS011;10522;52.198;9.890;2023-07-20T14:42:04;2.50;;;0.70;;
20721;SDS011;10522;52.198;9.890;2023-07-20T14:44:30;2.90;;;0.63;;
20721;SDS011;10522;52.198;9.890;2023-07-20T14:46:58;1.80;;;0.70;;
20721;SDS011;10522;52.198;9.890;2023-07-20T14:49:25;1.53;;;1.00;;
20721;SDS011;10522;52.198;9.890;2023-07-20T14:51:51;1.00;;;0.80;;
20721;SDS011;10522;52.198;9.890;2023-07-20T14:54:18;0.80;;;0.80;;
20721;SDS011;10522;52.198;9.890;2023-07-20T14:56:50;0.93;;;0.83;;
20721;SDS011;10522;52.198;9.890;2023-07-20T14:59:18;1.83;;;0.77;;
20721;SDS011;10522;52.198;9.890;2023-07-20T15:01:44;1.87;;;0.70;;
20721;SDS011;10522;52.198;9.890;2023-07-20T15:04:13;5.63;;;3.80;;